Time;durP1;ratioP1;P1;durP2;ratioP2;P2;SDS_P1;SDS_P2;PMS_P1;PMS_P2;Temp;Humidity;BMP_temperature;BMP_pressure;BME280_temperature;BME280_humidity;BME280_pressure;Samples;Min_cycle;Max_cycle;Signal;HPM_P1;HPM_P2
2024/04/01 00:16:51;;;;;;;11.90;5.50;;;6.00;99.90;;;;;;1919622;74;25375;-91
2024/04/01 00:39:16;;;;;;;10.80;6.77;;;6.00;99.90;;;;;;1895564;74;26882;-92
2024/04/01 00:45:00;;;;;;;11.07;5.80;;;5.80;99.90;;;;;;1941104;72;27345;-92
2024/04/01 00:47:59;;;;;;;10.90;5.80;;;5.80;99.90;;;;;;1915649;73;25195;-91
2024/04/01 00:50:53;;;;;;;12.00;5.50;;;5.80;99.90;;;;;;1919796;73;25234;-91
2024/04/01 00:54:03;;;;;;;8.77;5.33;;;5.70;99.90;;;;;;1928821;73;25168;-92
2024/04/01 00:56:55;;;;;;;9.80;5.73;;;5.70;99.90;;;;;;1938637;73;25695;-92
2024/04/01 01:13:15;;;;;;;8.00;4.73;;;5.70;99.90;;;;;;1921233;73;27169;-91
2024/04/01 01:32:00;;;;;;;10.40;5.93;;;5.30;99.90;;;;;;1924212;72;26330;-91
2024/04/01 02:04:23;;;;;;;11.93;6.00;;;4.60;99.90;;;;;;1945632;72;27347;-91
2024/04/01 02:07:13;;;;;;;9.53;5.70;;;4.50;99.90;;;;;;1920229;73;25620;-91
2024/04/01 02:10:11;;;;;;;10.63;5.50;;;4.40;99.90;;;;;;1931948;73;25181;-91
2024/04/01 02:13:10;;;;;;;10.43;5.43;;;4.40;99.90;;;;;;1915953;73;25336;-92
2024/04/01 02:16:09;;;;;;;10.77;5.47;;;4.40;99.90;;;;;;1872857;75;25687;-92
2024/04/01 02:19:04;;;;;;;10.47;5.30;;;4.40;99.90;;;;;;1932182;73;25205;-92
2024/04/01 02:21:55;;;;;;;11.20;5.70;;;4.40;99.90;;;;;;1905381;73;25176;-92
2024/04/01 02:24:46;;;;;;;10.07;5.90;;;4.40;99.90;;;;;;1898162;73;25746;-92
2024/04/01 02:27:35;;;;;;;10.07;5.13;;;4.30;99.90;;;;;;1923645;73;25308;-92
2024/04/01 02:30:24;;;;;;;8.00;5.20;;;4.30;99.90;;;;;;1923663;73;25201;-91
2024/04/01 02:33:16;;;;;;;11.27;5.40;;;4.30;99.90;;;;;;1921027;73;25269;-91
2024/04/01 02:36:06;;;;;;;15.10;5.33;;;4.20;99.90;;;;;;1907209;75;25311;-91
2024/04/01 02:38:56;;;;;;;8.37;5.33;;;4.10;99.90;;;;;;1875752;74;25248;-91
2024/04/01 02:50:19;;;;;;;13.73;7.03;;;3.90;99.90;;;;;;1937242;72;27665;-91
2024/04/01 02:53:09;;;;;;;12.33;5.83;;;3.80;99.90;;;;;;1890125;75;25739;-90
2024/04/01 02:55:58;;;;;;;12.10;6.00;;;3.70;99.90;;;;;;1898178;75;25268;-91
2024/04/01 02:58:52;;;;;;;11.47;5.83;;;3.60;99.90;;;;;;1910458;75;25308;-91
2024/04/01 03:01:41;;;;;;;12.07;5.43;;;3.50;99.90;;;;;;1866987;75;25166;-91
2024/04/01 03:04:32;;;;;;;10.43;5.43;;;3.50;99.90;;;;;;1898660;75;25735;-91
2024/04/01 03:07:24;;;;;;;11.20;5.83;;;3.40;99.90;;;;;;1905290;75;25278;-91
2024/04/01 03:10:14;;;;;;;9.57;4.70;;;3.30;99.90;;;;;;1903379;75;25152;-91
2024/04/01 03:13:07;;;;;;;8.20;5.33;;;3.30;99.90;;;;;;1910798;75;25269;-91
2024/04/01 03:16:01;;;;;;;8.13;4.73;;;3.30;99.90;;;;;;1904703;75;25859;-91
2024/04/01 03:18:51;;;;;;;9.30;5.50;;;3.20;99.90;;;;;;1888949;75;25163;-91
2024/04/01 03:21:43;;;;;;;8.30;4.93;;;3.10;99.90;;;;;;1906659;73;25243;-91
2024/04/01 03:24:32;;;;;;;12.70;5.03;;;2.90;99.90;;;;;;1899587;75;25250;-90
2024/04/01 03:27:22;;;;;;;9.30;5.07;;;2.90;99.90;;;;;;1913279;75;25342;-91
2024/04/01 03:33:12;;;;;;;8.13;4.73;;;2.70;99.90;;;;;;1891821;74;26741;-91
2024/04/01 03:38:58;;;;;;;9.77;5.40;;;2.70;99.90;;;;;;1952995;72;26957;-92
2024/04/01 03:41:49;;;;;;;10.57;5.43;;;2.60;99.90;;;;;;1878946;75;25311;-92
2024/04/01 03:58:25;;;;;;;13.07;6.50;;;2.70;99.90;;;;;;1921168;74;26943;-92
2024/04/01 04:01:16;;;;;;;10.67;5.83;;;2.70;99.90;;;;;;1902884;74;25758;-91
2024/04/01 04:10:03;;;;;;;13.33;6.63;;;2.60;99.90;;;;;;1989417;71;27417;-92
2024/04/01 04:13:01;;;;;;;12.37;6.00;;;2.50;99.90;;;;;;2003721;70;25163;-92
2024/04/01 04:15:52;;;;;;;13.97;6.33;;;2.50;99.90;;;;;;2014210;70;25151;-91
2024/04/01 04:18:44;;;;;;;11.67;5.80;;;2.30;99.90;;;;;;2025657;70;25565;-92
2024/04/01 04:21:35;;;;;;;14.87;5.50;;;2.30;99.90;;;;;;2009827;70;25218;-90
2024/04/01 23:54:57;;;;;;;0.30;0.30;;;3.90;99.90;;;;;;1944813;73;25218;-93
